sensor_id;sensor_type;location;lat;lon;timestamp;P1;durP1;ratioP1;P2;durP2;ratioP2
40847;SDS011;26570;50.962;5.340;2023-08-12T00:05:29;19.38;;;9.93;;
40847;SDS011;26570;50.962;5.340;2023-08-12T00:09:03;21.08;;;10.77;;
40847;SDS011;26570;50.962;5.340;2023-08-12T00:12:07;22.15;;;10.25;;
40847;SDS011;26570;50.962;5.340;2023-08-12T00:15:28;16.67;;;10.82;;
40847;SDS011;26570;50.962;5.340;2023-08-12T00:19:27;16.92;;;9.80;;
40847;SDS011;26570;50.962;5.340;2023-08-12T00:23:15;15.32;;;10.07;;
40847;SDS011;26570;50.962;5.340;2023-08-12T00:31:04;21.33;;;10.80;;
40847;SDS011;26570;50.962;5.340;2023-08-12T00:34:41;15.45;;;8.82;;
40847;SDS011;26570;50.962;5.340;2023-08-12T00:38:29;12.70;;;7.68;;
40847;SDS011;26570;50.962;5.340;2023-08-12T00:42:11;15.45;;;7.68;;
40847;SDS011;26570;50.962;5.340;2023-08-12T00:46:05;17.02;;;6.82;;
40847;SDS011;26570;50.962;5.340;2023-08-12T01:00:26;12.25;;;5.18;;
40847;SDS011;26570;50.962;5.340;2023-08-12T01:04:15;13.52;;;6.15;;
40847;SDS011;26570;50.962;5.340;2023-08-12T01:11:29;12.18;;;6.43;;
40847;SDS011;26570;50.962;5.340;2023-08-12T01:18:05;12.98;;;6.82;;
40847;SDS011;26570;50.962;5.340;2023-08-12T01:22:03;11.82;;;4.57;;
40847;SDS011;26570;50.962;5.340;2023-08-12T01:29:03;8.00;;;2.15;;
40847;SDS011;26570;50.962;5.340;2023-08-12T01:36:18;8.60;;;1.95;;
40847;SDS011;26570;50.962;5.340;2023-08-12T01:43:50;7.60;;;2.15;;
40847;SDS011;26570;50.962;5.340;2023-08-12T01:51:42;5.28;;;1.40;;
40847;SDS011;26570;50.962;5.340;2023-08-12T01:55:47;8.80;;;1.70;;
40847;SDS011;26570;50.962;5.340;2023-08-12T01:59:18;5.80;;;1.65;;
40847;SDS011;26570;50.962;5.340;2023-08-12T02:02:52;7.28;;;2.22;;
40847;SDS011;26570;50.962;5.340;2023-08-12T02:15:07;10.27;;;2.35;;
40847;SDS011;26570;50.962;5.340;2023-08-12T02:19:04;6.45;;;1.92;;
40847;SDS011;26570;50.962;5.340;2023-08-12T02:27:09;10.25;;;2.58;;
40847;SDS011;26570;50.962;5.340;2023-08-12T02:35:07;6.65;;;2.90;;
40847;SDS011;26570;50.962;5.340;2023-08-12T02:38:37;10.23;;;3.10;;
40847;SDS011;26570;50.962;5.340;2023-08-12T02:42:32;6.88;;;2.95;;
40847;SDS011;26570;50.962;5.340;2023-08-12T02:45:49;7.93;;;3.05;;
40847;SDS011;26570;50.962;5.340;2023-08-12T02:53:08;8.27;;;3.70;;
40847;SDS011;26570;50.962;5.340;2023-08-12T02:57:12;8.45;;;4.40;;
40847;SDS011;26570;50.962;5.340;2023-08-12T03:01:23;9.23;;;4.97;;
40847;SDS011;26570;50.962;5.340;2023-08-12T03:08:24;15.25;;;7.50;;
40847;SDS011;26570;50.962;5.340;2023-08-12T03:32:32;13.07;;;8.85;;
40847;SDS011;26570;50.962;5.340;2023-08-12T03:36:14;14.88;;;11.40;;
40847;SDS011;26570;50.962;5.340;2023-08-12T03:43:58;17.02;;;12.05;;
40847;SDS011;26570;50.962;5.340;2023-08-12T03:47:59;21.65;;;13.63;;
40847;SDS011;26570;50.962;5.340;2023-08-12T04:10:14;25.33;;;17.02;;
40847;SDS011;26570;50.962;5.340;2023-08-12T04:18:09;27.63;;;17.48;;
40847;SDS011;26570;50.962;5.340;2023-08-12T04:21:44;30.60;;;19.20;;
40847;SDS011;26570;50.962;5.340;2023-08-12T04:25:37;32.08;;;18.88;;
40847;SDS011;26570;50.962;5.340;2023-08-12T04:32:51;30.08;;;19.52;;
40847;SDS011;26570;50.962;5.340;2023-08-12T04:36:56;32.88;;;20.00;;
40847;SDS011;26570;50.962;5.340;2023-08-12T04:40:48;27.75;;;19.13;;
40847;SDS011;26570;50.962;5.340;2023-08-12T04:43:40;29.98;;;20.85;;
40847;SDS011;26570;50.962;5.340;2023-08-12T04:46:57;32.97;;;20.52;;
40847;SDS011;26570;50.962;5.340;2023-08-12T04:50:29;27.60;;;19.55;;
40847;SDS011;26570;50.962;5.340;2023-08-12T05:02:09;24.33;;;16.20;;
40847;SDS011;26570;50.962;5.340;2023-08-12T05:17:50;18.45;;;9.93;;
40847;SDS011;26570;50.962;5.340;2023-08-12T05:21:30;17.58;;;10.10;;
40847;SDS011;26570;50.962;5.340;2023-08-12T05:33:03;14.52;;;7.93;;
40847;SDS011;26570;50.962;5.340;2023-08-12T05:40:55;7.75;;;6.15;;
40847;SDS011;26570;50.962;5.340;2023-08-12T05:48:28;8.80;;;5.80;;
40847;SDS011;26570;50.962;5.340;2023-08-12T05:51:55;7.72;;;4.93;;
40847;SDS011;26570;50.962;5.340;2023-08-12T06:03:05;7.60;;;3.95;;
40847;SDS011;26570;50.962;5.340;2023-08-12T06:07:17;4.00;;;3.08;;
40847;SDS011;26570;50.962;5.340;2023-08-12T06:11:19;5.63;;;3.38;;
40847;SDS011;26570;50.962;5.340;2023-08-12T06:15:38;7.60;;;3.60;;
40847;SDS011;26570;50.962;5.340;2023-08-12T06:19:30;7.55;;;3.47;;
40847;SDS011;26570;50.962;5.340;2023-08-12T06:23:48;4.80;;;3.10;;
40847;SDS011;26570;50.962;5.340;2023-08-12T06:38:03;3.22;;;2.50;;
40847;SDS011;26570;50.962;5.340;2023-08-12T07:13:47;2.05;;;0.80;;
40847;SDS011;26570;50.962;5.340;2023-08-12T07:38:25;0.80;;;0.30;;
40847;SDS011;26570;50.962;5.340;2023-08-12T07:44:41;2.40;;;0.20;;
40847;SDS011;26570;50.962;5.340;2023-08-12T07:47:26;1.05;;;0.10;;
40847;SDS011;26570;50.962;5.340;2023-08-12T07:50:10;0.38;;;0.10;;
40847;SDS011;26570;50.962;5.340;2023-08-12T07:52:55;0.60;;;0.10;;
40847;SDS011;26570;50.962;5.340;2023-08-12T07:55:40;1.20;;;0.10;;
40847;SDS011;26570;50.962;5.340;2023-08-12T07:58:25;0.45;;;0.10;;
40847;SDS011;26570;50.962;5.340;2023-08-12T08:01:11;0.52;;;0.10;;
40847;SDS011;26570;50.962;5.340;2023-08-12T08:04:21;0.30;;;0.00;;
40847;SDS011;26570;50.962;5.340;2023-08-12T08:07:06;0.60;;;0.05;;
40847;SDS011;26570;50.962;5.340;2023-08-12T08:09:51;0.10;;;0.00;;
40847;SDS011;26570;50.962;5.340;2023-08-12T08:15:52;1.20;;;0.00;;
40847;SDS011;26570;50.962;5.340;2023-08-12T08:18:38;0.38;;;0.00;;
40847;SDS011;26570;50.962;5.340;2023-08-12T08:21:23;0.10;;;0.00;;
40847;SDS011;26570;50.962;5.340;2023-08-12T08:24:08;1.50;;;0.00;;
40847;SDS011;26570;50.962;5.340;2023-08-12T08:26:55;0.20;;;0.00;;
40847;SDS011;26570;50.962;5.340;2023-08-12T08:29:40;0.10;;;0.00;;
40847;SDS011;26570;50.962;5.340;2023-08-12T08:32:24;1.95;;;0.00;;
40847;SDS011;26570;50.962;5.340;2023-08-12T08:35:13;0.15;;;0.00;;
40847;SDS011;26570;50.962;5.340;2023-08-12T08:41:18;0.08;;;0.00;;
40847;SDS011;26570;50.962;5.340;2023-08-12T08:44:28;0.10;;;0.00;;
40847;SDS011;26570;50.962;5.340;2023-08-12T08:50:33;0.38;;;0.00;;
40847;SDS011;26570;50.962;5.340;2023-08-12T08:53:21;0.47;;;0.00;;
40847;SDS011;26570;50.962;5.340;2023-08-12T08:56:13;0.30;;;0.00;;
40847;SDS011;26570;50.962;5.340;2023-08-12T08:59:22;0.10;;;0.00;;
40847;SDS011;26570;50.962;5.340;2023-08-12T09:02:13;0.08;;;0.00;;
40847;SDS011;26570;50.962;5.340;2023-08-12T09:05:16;1.27;;;0.00;;
40847;SDS011;26570;50.962;5.340;2023-08-12T09:08:07;0.00;;;0.00;;
40847;SDS011;26570;50.962;5.340;2023-08-12T09:10:59;0.10;;;0.00;;
40847;SDS011;26570;50.962;5.340;2023-08-12T09:13:45;0.20;;;0.00;;
40847;SDS011;26570;50.962;5.340;2023-08-12T09:16:34;0.25;;;0.00;;
40847;SDS011;26570;50.962;5.340;2023-08-12T09:19:20;1.40;;;0.10;;
40847;SDS011;26570;50.962;5.340;2023-08-12T09:22:24;0.65;;;0.05;;
40847;SDS011;26570;50.962;5.340;2023-08-12T09:25:14;0.20;;;0.00;;
40847;SDS011;26570;50.962;5.340;2023-08-12T09:28:00;0.35;;;0.00;;
40847;SDS011;26570;50.962;5.340;2023-08-12T09:30:52;0.60;;;0.10;;
40847;SDS011;26570;50.962;5.340;2023-08-12T09:36:54;0.20;;;0.10;;
40847;SDS011;26570;50.962;5.340;2023-08-12T09:39:40;0.50;;;0.10;;
40847;SDS011;26570;50.962;5.340;2023-08-12T09:42:28;0.20;;;0.10;;
40847;SDS011;26570;50.962;5.340;2023-08-12T09:45:17;4.47;;;0.40;;
40847;SDS011;26570;50.962;5.340;2023-08-12T09:48:12;1.30;;;0.10;;
40847;SDS011;26570;50.962;5.340;2023-08-12T09:51:01;0.93;;;0.20;;
40847;SDS011;26570;50.962;5.340;2023-08-12T09:53:48;0.30;;;0.10;;
40847;SDS011;26570;50.962;5.340;2023-08-12T09:56:36;0.60;;;0.10;;
40847;SDS011;26570;50.962;5.340;2023-08-12T10:00:03;1.40;;;0.10;;
40847;SDS011;26570;50.962;5.340;2023-08-12T10:09:21;0.15;;;0.00;;
40847;SDS011;26570;50.962;5.340;2023-08-12T10:12:12;0.30;;;0.10;;
40847;SDS011;26570;50.962;5.340;2023-08-12T10:18:08;0.93;;;0.00;;
40847;SDS011;26570;50.962;5.340;2023-08-12T10:22:18;0.20;;;0.00;;
40847;SDS011;26570;50.962;5.340;2023-08-12T10:25:07;0.28;;;0.10;;
40847;SDS011;26570;50.962;5.340;2023-08-12T10:27:57;0.00;;;0.00;;
40847;SDS011;26570;50.962;5.340;2023-08-12T10:30:46;0.25;;;0.10;;
40847;SDS011;26570;50.962;5.340;2023-08-12T10:33:37;0.13;;;0.10;;
40847;SDS011;26570;50.962;5.340;2023-08-12T10:36:26;0.55;;;0.20;;
40847;SDS011;26570;50.962;5.340;2023-08-12T10:39:15;1.33;;;0.15;;
40847;SDS011;26570;50.962;5.340;2023-08-12T10:42:04;0.20;;;0.10;;
40847;SDS011;26570;50.962;5.340;2023-08-12T10:44:51;0.30;;;0.10;;
40847;SDS011;26570;50.962;5.340;2023-08-12T10:47:42;0.30;;;0.10;;
40847;SDS011;26570;50.962;5.340;2023-08-12T10:50:32;1.00;;;0.20;;
40847;SDS011;26570;50.962;5.340;2023-08-12T10:53:24;0.40;;;0.20;;
40847;SDS011;26570;50.962;5.340;2023-08-12T10:56:29;0.47;;;0.30;;
40847;SDS011;26570;50.962;5.340;2023-08-12T11:02:50;0.40;;;0.20;;
40847;SDS011;26570;50.962;5.340;2023-08-12T11:05:49;0.90;;;0.30;;
40847;SDS011;26570;50.962;5.340;2023-08-12T11:08:52;1.38;;;0.30;;
40847;SDS011;26570;50.962;5.340;2023-08-12T11:11:38;0.90;;;0.30;;
40847;SDS011;26570;50.962;5.340;2023-08-12T11:14:27;2.00;;;0.40;;
40847;SDS011;26570;50.962;5.340;2023-08-12T11:17:14;2.13;;;0.40;;
40847;SDS011;26570;50.962;5.340;2023-08-12T11:20:04;0.90;;;0.38;;
40847;SDS011;26570;50.962;5.340;2023-08-12T11:22:52;1.45;;;0.52;;
40847;SDS011;26570;50.962;5.340;2023-08-12T11:28:51;3.05;;;0.40;;
40847;SDS011;26570;50.962;5.340;2023-08-12T11:31:55;0.75;;;0.30;;
40847;SDS011;26570;50.962;5.340;2023-08-12T11:34:45;2.13;;;0.30;;
40847;SDS011;26570;50.962;5.340;2023-08-12T11:37:35;2.58;;;0.30;;
40847;SDS011;26570;50.962;5.340;2023-08-12T11:40:23;2.70;;;0.30;;
40847;SDS011;26570;50.962;5.340;2023-08-12T11:43:28;2.33;;;0.38;;
40847;SDS011;26570;50.962;5.340;2023-08-12T11:46:32;2.47;;;0.20;;
40847;SDS011;26570;50.962;5.340;2023-08-12T11:49:21;1.17;;;0.20;;
40847;SDS011;26570;50.962;5.340;2023-08-12T11:52:11;4.10;;;0.20;;
40847;SDS011;26570;50.962;5.340;2023-08-12T11:54:59;1.42;;;0.20;;
40847;SDS011;26570;50.962;5.340;2023-08-12T11:58:00;1.35;;;0.20;;
40847;SDS011;26570;50.962;5.340;2023-08-12T12:00:56;2.42;;;0.20;;
40847;SDS011;26570;50.962;5.340;2023-08-12T12:04:01;0.90;;;0.20;;
40847;SDS011;26570;50.962;5.340;2023-08-12T12:06:48;1.27;;;0.20;;
40847;SDS011;26570;50.962;5.340;2023-08-12T12:09:37;0.98;;;0.20;;
40847;SDS011;26570;50.962;5.340;2023-08-12T12:12:30;1.52;;;0.20;;
40847;SDS011;26570;50.962;5.340;2023-08-12T12:15:24;1.30;;;0.20;;
40847;SDS011;26570;50.962;5.340;2023-08-12T12:18:13;2.25;;;0.20;;
40847;SDS011;26570;50.962;5.340;2023-08-12T12:20:59;1.55;;;0.20;;
40847;SDS011;26570;50.962;5.340;2023-08-12T12:23:52;1.58;;;0.30;;
40847;SDS011;26570;50.962;5.340;2023-08-12T12:26:51;3.17;;;0.20;;
40847;SDS011;26570;50.962;5.340;2023-08-12T12:29:59;1.30;;;0.20;;
40847;SDS011;26570;50.962;5.340;2023-08-12T12:32:47;1.17;;;0.20;;
40847;SDS011;26570;50.962;5.340;2023-08-12T12:35:36;2.47;;;0.22;;
40847;SDS011;26570;50.962;5.340;2023-08-12T12:38:25;2.33;;;0.20;;
40847;SDS011;26570;50.962;5.340;2023-08-12T12:41:42;3.88;;;0.20;;
40847;SDS011;26570;50.962;5.340;2023-08-12T12:44:32;1.35;;;0.20;;
40847;SDS011;26570;50.962;5.340;2023-08-12T12:50:37;5.72;;;0.20;;
40847;SDS011;26570;50.962;5.340;2023-08-12T12:53:30;1.92;;;0.20;;
40847;SDS011;26570;50.962;5.340;2023-08-12T12:56:15;1.93;;;0.20;;
40847;SDS011;26570;50.962;5.340;2023-08-12T12:59:04;2.83;;;0.30;;
40847;SDS011;26570;50.962;5.340;2023-08-12T13:01:59;1.35;;;0.30;;
40847;SDS011;26570;50.962;5.340;2023-08-12T13:04:47;2.53;;;0.20;;
40847;SDS011;26570;50.962;5.340;2023-08-12T13:07:36;1.50;;;0.30;;
40847;SDS011;26570;50.962;5.340;2023-08-12T13:13:31;2.20;;;0.30;;
40847;SDS011;26570;50.962;5.340;2023-08-12T13:16:20;1.90;;;0.20;;
40847;SDS011;26570;50.962;5.340;2023-08-12T13:19:05;2.28;;;0.30;;
40847;SDS011;26570;50.962;5.340;2023-08-12T13:21:51;1.92;;;0.30;;
40847;SDS011;26570;50.962;5.340;2023-08-12T13:24:40;1.83;;;0.25;;
40847;SDS011;26570;50.962;5.340;2023-08-12T13:27:24;1.10;;;0.20;;
40847;SDS011;26570;50.962;5.340;2023-08-12T13:30:10;2.45;;;0.20;;
40847;SDS011;26570;50.962;5.340;2023-08-12T13:33:04;1.15;;;0.22;;
40847;SDS011;26570;50.962;5.340;2023-08-12T13:39:11;1.30;;;0.20;;
40847;SDS011;26570;50.962;5.340;2023-08-12T13:41:57;1.13;;;0.20;;
40847;SDS011;26570;50.962;5.340;2023-08-12T13:47:55;2.72;;;0.30;;
40847;SDS011;26570;50.962;5.340;2023-08-12T13:50:43;3.03;;;0.20;;
40847;SDS011;26570;50.962;5.340;2023-08-12T13:53:41;1.42;;;0.20;;
40847;SDS011;26570;50.962;5.340;2023-08-12T13:56:29;1.20;;;0.20;;
40847;SDS011;26570;50.962;5.340;2023-08-12T14:05:14;1.15;;;0.20;;
40847;SDS011;26570;50.962;5.340;2023-08-12T14:07:59;1.73;;;0.20;;
40847;SDS011;26570;50.962;5.340;2023-08-12T14:13:48;1.98;;;0.20;;
40847;SDS011;26570;50.962;5.340;2023-08-12T14:16:33;0.77;;;0.20;;
40847;SDS011;26570;50.962;5.340;2023-08-12T14:19:19;4.10;;;0.30;;
40847;SDS011;26570;50.962;5.340;2023-08-12T14:22:17;2.38;;;0.20;;
40847;SDS011;26570;50.962;5.340;2023-08-12T14:25:03;2.95;;;0.30;;
40847;SDS011;26570;50.962;5.340;2023-08-12T14:27:51;2.88;;;0.25;;
40847;SDS011;26570;50.962;5.340;2023-08-12T14:30:54;2.50;;;0.63;;
40847;SDS011;26570;50.962;5.340;2023-08-12T14:33:58;1.42;;;0.20;;
40847;SDS011;26570;50.962;5.340;2023-08-12T14:36:42;1.52;;;0.30;;
40847;SDS011;26570;50.962;5.340;2023-08-12T14:39:31;2.38;;;0.30;;
40847;SDS011;26570;50.962;5.340;2023-08-12T14:42:19;2.58;;;0.30;;
40847;SDS011;26570;50.962;5.340;2023-08-12T14:45:08;3.08;;;0.30;;
40847;SDS011;26570;50.962;5.340;2023-08-12T14:47:59;1.13;;;0.20;;
40847;SDS011;26570;50.962;5.340;2023-08-12T14:50:47;3.17;;;0.30;;
40847;SDS011;26570;50.962;5.340;2023-08-12T14:53:45;2.22;;;0.20;;
40847;SDS011;26570;50.962;5.340;2023-08-12T14:56:31;1.55;;;0.20;;
40847;SDS011;26570;50.962;5.340;2023-08-12T14:59:17;1.80;;;0.30;;
40847;SDS011;26570;50.962;5.340;2023-08-12T15:02:06;4.18;;;0.30;;
40847;SDS011;26570;50.962;5.340;2023-08-12T15:04:54;1.40;;;0.20;;
40847;SDS011;26570;50.962;5.340;2023-08-12T15:07:58;3.85;;;0.85;;
40847;SDS011;26570;50.962;5.340;2023-08-12T15:10:43;2.65;;;0.30;;
40847;SDS011;26570;50.962;5.340;2023-08-12T15:13:32;2.50;;;0.20;;
40847;SDS011;26570;50.962;5.340;2023-08-12T15:16:20;1.02;;;0.30;;
40847;SDS011;26570;50.962;5.340;2023-08-12T15:19:27;1.60;;;0.20;;
40847;SDS011;26570;50.962;5.340;2023-08-12T15:22:12;3.03;;;0.20;;
40847;SDS011;26570;50.962;5.340;2023-08-12T15:25:08;2.10;;;0.20;;
40847;SDS011;26570;50.962;5.340;2023-08-12T15:27:57;1.45;;;0.20;;
40847;SDS011;26570;50.962;5.340;2023-08-12T15:31:04;0.95;;;0.20;;
40847;SDS011;26570;50.962;5.340;2023-08-12T15:33:53;1.13;;;0.20;;
40847;SDS011;26570;50.962;5.340;2023-08-12T15:36:38;3.90;;;0.30;;
40847;SDS011;26570;50.962;5.340;2023-08-12T15:39:24;2.15;;;0.30;;
40847;SDS011;26570;50.962;5.340;2023-08-12T15:42:09;3.03;;;0.20;;
40847;SDS011;26570;50.962;5.340;2023-08-12T15:44:58;1.05;;;0.20;;
40847;SDS011;26570;50.962;5.340;2023-08-12T15:47:48;2.15;;;0.20;;
40847;SDS011;26570;50.962;5.340;2023-08-12T15:50:55;2.03;;;0.20;;
40847;SDS011;26570;50.962;5.340;2023-08-12T15:53:48;1.00;;;0.20;;
40847;SDS011;26570;50.962;5.340;2023-08-12T15:56:54;1.38;;;0.20;;
40847;SDS011;26570;50.962;5.340;2023-08-12T15:59:40;0.93;;;0.10;;
40847;SDS011;26570;50.962;5.340;2023-08-12T16:05:37;2.08;;;0.20;;
40847;SDS011;26570;50.962;5.340;2023-08-12T16:08:41;2.47;;;0.35;;
40847;SDS011;26570;50.962;5.340;2023-08-12T16:11:28;2.25;;;0.30;;
40847;SDS011;26570;50.962;5.340;2023-08-12T16:14:26;1.40;;;0.22;;
40847;SDS011;26570;50.962;5.340;2023-08-12T16:17:15;1.95;;;0.20;;
40847;SDS011;26570;50.962;5.340;2023-08-12T16:20:03;1.65;;;0.20;;
40847;SDS011;26570;50.962;5.340;2023-08-12T16:23:08;1.08;;;0.20;;
40847;SDS011;26570;50.962;5.340;2023-08-12T16:25:57;1.77;;;0.30;;
40847;SDS011;26570;50.962;5.340;2023-08-12T16:28:43;3.55;;;0.20;;
40847;SDS011;26570;50.962;5.340;2023-08-12T16:35:05;2.72;;;0.28;;
40847;SDS011;26570;50.962;5.340;2023-08-12T16:38:03;2.15;;;0.30;;
40847;SDS011;26570;50.962;5.340;2023-08-12T16:40:49;2.30;;;0.20;;
40847;SDS011;26570;50.962;5.340;2023-08-12T16:43:38;1.60;;;0.20;;
40847;SDS011;26570;50.962;5.340;2023-08-12T16:46:36;1.45;;;0.20;;
40847;SDS011;26570;50.962;5.340;2023-08-12T16:49:34;2.30;;;0.20;;
40847;SDS011;26570;50.962;5.340;2023-08-12T16:52:23;2.33;;;0.30;;
40847;SDS011;26570;50.962;5.340;2023-08-12T16:55:24;3.00;;;0.20;;
40847;SDS011;26570;50.962;5.340;2023-08-12T16:58:10;2.42;;;0.22;;
40847;SDS011;26570;50.962;5.340;2023-08-12T17:00:59;1.20;;;0.22;;
40847;SDS011;26570;50.962;5.340;2023-08-12T17:03:54;4.00;;;0.30;;
40847;SDS011;26570;50.962;5.340;2023-08-12T17:06:52;2.38;;;0.20;;
40847;SDS011;26570;50.962;5.340;2023-08-12T17:09:38;4.30;;;0.30;;
40847;SDS011;26570;50.962;5.340;2023-08-12T17:12:27;1.40;;;0.28;;
40847;SDS011;26570;50.962;5.340;2023-08-12T17:15:28;2.88;;;0.30;;
40847;SDS011;26570;50.962;5.340;2023-08-12T17:18:20;2.05;;;0.30;;
40847;SDS011;26570;50.962;5.340;2023-08-12T17:21:06;2.45;;;0.30;;
40847;SDS011;26570;50.962;5.340;2023-08-12T17:23:59;2.38;;;0.22;;
40847;SDS011;26570;50.962;5.340;2023-08-12T17:27:03;4.05;;;0.30;;
40847;SDS011;26570;50.962;5.340;2023-08-12T17:29:54;2.05;;;0.30;;
40847;SDS011;26570;50.962;5.340;2023-08-12T17:32:53;2.50;;;0.20;;
40847;SDS011;26570;50.962;5.340;2023-08-12T17:35:53;3.20;;;0.30;;
40847;SDS011;26570;50.962;5.340;2023-08-12T17:38:49;4.70;;;0.30;;
40847;SDS011;26570;50.962;5.340;2023-08-12T17:41:51;5.82;;;0.30;;
40847;SDS011;26570;50.962;5.340;2023-08-12T17:44:43;1.50;;;0.50;;
40847;SDS011;26570;50.962;5.340;2023-08-12T17:47:30;1.70;;;0.28;;
40847;SDS011;26570;50.962;5.340;2023-08-12T17:50:15;3.33;;;0.40;;
40847;SDS011;26570;50.962;5.340;2023-08-12T17:53:01;1.42;;;0.30;;
40847;SDS011;26570;50.962;5.340;2023-08-12T17:55:50;1.35;;;0.25;;
40847;SDS011;26570;50.962;5.340;2023-08-12T17:58:51;2.72;;;0.30;;
40847;SDS011;26570;50.962;5.340;2023-08-12T18:01:40;3.08;;;0.60;;
40847;SDS011;26570;50.962;5.340;2023-08-12T18:04:27;1.30;;;0.25;;
40847;SDS011;26570;50.962;5.340;2023-08-12T18:07:13;2.35;;;0.30;;
40847;SDS011;26570;50.962;5.340;2023-08-12T18:10:01;2.00;;;0.30;;
40847;SDS011;26570;50.962;5.340;2023-08-12T18:13:09;2.05;;;0.50;;
40847;SDS011;26570;50.962;5.340;2023-08-12T18:16:05;2.65;;;0.30;;
40847;SDS011;26570;50.962;5.340;2023-08-12T18:18:53;3.20;;;0.30;;
40847;SDS011;26570;50.962;5.340;2023-08-12T18:21:38;2.40;;;0.30;;
40847;SDS011;26570;50.962;5.340;2023-08-12T18:24:39;3.30;;;0.32;;
40847;SDS011;26570;50.962;5.340;2023-08-12T18:27:28;3.78;;;0.30;;
40847;SDS011;26570;50.962;5.340;2023-08-12T18:30:25;3.70;;;0.30;;
40847;SDS011;26570;50.962;5.340;2023-08-12T18:33:14;2.42;;;0.38;;
40847;SDS011;26570;50.962;5.340;2023-08-12T18:36:00;3.45;;;0.60;;
40847;SDS011;26570;50.962;5.340;2023-08-12T18:39:01;2.97;;;0.40;;
40847;SDS011;26570;50.962;5.340;2023-08-12T18:41:50;3.13;;;0.30;;
40847;SDS011;26570;50.962;5.340;2023-08-12T18:47:49;2.45;;;0.32;;
40847;SDS011;26570;50.962;5.340;2023-08-12T18:50:38;3.55;;;0.50;;
40847;SDS011;26570;50.962;5.340;2023-08-12T18:53:28;3.33;;;0.45;;
40847;SDS011;26570;50.962;5.340;2023-08-12T18:56:16;3.25;;;0.45;;
40847;SDS011;26570;50.962;5.340;2023-08-12T18:59:01;6.35;;;0.40;;
40847;SDS011;26570;50.962;5.340;2023-08-12T19:01:46;5.72;;;0.50;;
40847;SDS011;26570;50.962;5.340;2023-08-12T19:04:35;5.80;;;0.47;;
40847;SDS011;26570;50.962;5.340;2023-08-12T19:07:35;4.78;;;0.40;;
40847;SDS011;26570;50.962;5.340;2023-08-12T19:14:16;3.88;;;0.40;;
40847;SDS011;26570;50.962;5.340;2023-08-12T19:17:11;5.10;;;0.68;;
40847;SDS011;26570;50.962;5.340;2023-08-12T19:19:59;1.52;;;0.30;;
40847;SDS011;26570;50.962;5.340;2023-08-12T19:26:02;3.38;;;0.40;;
40847;SDS011;26570;50.962;5.340;2023-08-12T19:28:50;5.68;;;0.40;;
40847;SDS011;26570;50.962;5.340;2023-08-12T19:31:38;5.18;;;0.40;;
40847;SDS011;26570;50.962;5.340;2023-08-12T19:34:34;7.75;;;0.50;;
40847;SDS011;26570;50.962;5.340;2023-08-12T19:37:38;1.65;;;0.40;;
40847;SDS011;26570;50.962;5.340;2023-08-12T19:40:32;4.18;;;0.60;;
40847;SDS011;26570;50.962;5.340;2023-08-12T19:43:18;4.55;;;0.50;;
40847;SDS011;26570;50.962;5.340;2023-08-12T19:46:04;4.13;;;0.50;;
40847;SDS011;26570;50.962;5.340;2023-08-12T19:48:50;7.35;;;0.50;;
40847;SDS011;26570;50.962;5.340;2023-08-12T19:51:36;6.30;;;0.57;;
40847;SDS011;26570;50.962;5.340;2023-08-12T19:54:21;7.70;;;0.50;;
40847;SDS011;26570;50.962;5.340;2023-08-12T19:57:07;2.45;;;0.47;;
40847;SDS011;26570;50.962;5.340;2023-08-12T19:59:52;4.97;;;0.50;;
40847;SDS011;26570;50.962;5.340;2023-08-12T20:02:38;7.60;;;0.60;;
40847;SDS011;26570;50.962;5.340;2023-08-12T20:05:25;7.30;;;0.40;;
40847;SDS011;26570;50.962;5.340;2023-08-12T20:08:12;4.90;;;0.52;;
40847;SDS011;26570;50.962;5.340;2023-08-12T20:10:58;7.25;;;0.50;;
40847;SDS011;26570;50.962;5.340;2023-08-12T20:13:44;3.60;;;0.55;;
40847;SDS011;26570;50.962;5.340;2023-08-12T20:16:30;6.15;;;0.60;;
40847;SDS011;26570;50.962;5.340;2023-08-12T20:19:15;4.65;;;0.57;;
40847;SDS011;26570;50.962;5.340;2023-08-12T20:22:01;6.53;;;0.43;;
40847;SDS011;26570;50.962;5.340;2023-08-12T20:24:46;4.50;;;0.80;;
40847;SDS011;26570;50.962;5.340;2023-08-12T20:27:32;6.65;;;0.50;;
40847;SDS011;26570;50.962;5.340;2023-08-12T20:30:18;4.88;;;0.60;;
40847;SDS011;26570;50.962;5.340;2023-08-12T20:33:04;4.70;;;0.50;;
40847;SDS011;26570;50.962;5.340;2023-08-12T20:35:50;7.03;;;0.50;;
40847;SDS011;26570;50.962;5.340;2023-08-12T20:38:35;6.07;;;0.88;;
40847;SDS011;26570;50.962;5.340;2023-08-12T20:41:21;6.32;;;0.43;;
40847;SDS011;26570;50.962;5.340;2023-08-12T20:44:12;5.68;;;0.60;;
40847;SDS011;26570;50.962;5.340;2023-08-12T20:46:57;7.15;;;0.80;;
40847;SDS011;26570;50.962;5.340;2023-08-12T20:49:43;4.93;;;0.50;;
40847;SDS011;26570;50.962;5.340;2023-08-12T20:52:29;5.13;;;0.50;;
40847;SDS011;26570;50.962;5.340;2023-08-12T20:55:15;4.85;;;0.70;;
40847;SDS011;26570;50.962;5.340;2023-08-12T20:58:01;4.07;;;0.40;;
40847;SDS011;26570;50.962;5.340;2023-08-12T21:00:46;3.95;;;0.90;;
40847;SDS011;26570;50.962;5.340;2023-08-12T21:03:32;4.05;;;0.50;;
40847;SDS011;26570;50.962;5.340;2023-08-12T21:06:17;5.20;;;0.60;;
40847;SDS011;26570;50.962;5.340;2023-08-12T21:09:03;4.28;;;0.50;;
40847;SDS011;26570;50.962;5.340;2023-08-12T21:11:50;3.90;;;0.82;;
40847;SDS011;26570;50.962;5.340;2023-08-12T21:14:35;4.30;;;1.02;;
40847;SDS011;26570;50.962;5.340;2023-08-12T21:17:21;6.13;;;0.60;;
40847;SDS011;26570;50.962;5.340;2023-08-12T21:20:07;3.70;;;0.50;;
40847;SDS011;26570;50.962;5.340;2023-08-12T21:22:53;4.75;;;0.50;;
40847;SDS011;26570;50.962;5.340;2023-08-12T21:25:39;5.75;;;1.02;;
40847;SDS011;26570;50.962;5.340;2023-08-12T21:28:24;6.15;;;0.60;;
40847;SDS011;26570;50.962;5.340;2023-08-12T21:31:10;6.07;;;0.60;;
40847;SDS011;26570;50.962;5.340;2023-08-12T21:33:55;5.53;;;0.90;;
40847;SDS011;26570;50.962;5.340;2023-08-12T21:36:41;2.13;;;0.60;;
40847;SDS011;26570;50.962;5.340;2023-08-12T21:39:27;4.05;;;0.63;;
40847;SDS011;26570;50.962;5.340;2023-08-12T21:42:13;6.30;;;0.68;;
40847;SDS011;26570;50.962;5.340;2023-08-12T21:44:58;3.38;;;0.60;;
40847;SDS011;26570;50.962;5.340;2023-08-12T21:47:44;7.20;;;0.60;;
40847;SDS011;26570;50.962;5.340;2023-08-12T21:50:30;5.95;;;0.60;;
40847;SDS011;26570;50.962;5.340;2023-08-12T21:53:16;8.32;;;0.60;;
40847;SDS011;26570;50.962;5.340;2023-08-12T21:56:01;4.57;;;0.60;;
40847;SDS011;26570;50.962;5.340;2023-08-12T21:58:47;6.50;;;0.60;;
40847;SDS011;26570;50.962;5.340;2023-08-12T22:01:33;4.82;;;0.77;;
40847;SDS011;26570;50.962;5.340;2023-08-12T22:04:18;6.18;;;0.60;;
40847;SDS011;26570;50.962;5.340;2023-08-12T22:07:04;9.63;;;0.70;;
40847;SDS011;26570;50.962;5.340;2023-08-12T22:09:50;6.53;;;0.80;;
40847;SDS011;26570;50.962;5.340;2023-08-12T22:12:35;5.93;;;0.70;;
40847;SDS011;26570;50.962;5.340;2023-08-12T22:15:21;9.13;;;1.20;;
40847;SDS011;26570;50.962;5.340;2023-08-12T22:18:06;6.60;;;1.07;;
40847;SDS011;26570;50.962;5.340;2023-08-12T22:20:52;5.47;;;1.20;;
40847;SDS011;26570;50.962;5.340;2023-08-12T22:23:38;4.77;;;0.73;;
40847;SDS011;26570;50.962;5.340;2023-08-12T22:26:24;5.87;;;0.90;;
40847;SDS011;26570;50.962;5.340;2023-08-12T22:29:10;3.43;;;0.60;;
40847;SDS011;26570;50.962;5.340;2023-08-12T22:31:55;3.63;;;0.97;;
40847;SDS011;26570;50.962;5.340;2023-08-12T22:34:41;8.50;;;1.10;;
40847;SDS011;26570;50.962;5.340;2023-08-12T22:37:27;4.83;;;0.80;;
40847;SDS011;26570;50.962;5.340;2023-08-12T22:40:12;7.20;;;1.17;;
40847;SDS011;26570;50.962;5.340;2023-08-12T22:42:58;5.17;;;0.80;;
40847;SDS011;26570;50.962;5.340;2023-08-12T22:45:44;8.30;;;0.90;;
40847;SDS011;26570;50.962;5.340;2023-08-12T22:48:30;8.13;;;0.93;;
40847;SDS011;26570;50.962;5.340;2023-08-12T22:51:15;6.07;;;0.90;;
40847;SDS011;26570;50.962;5.340;2023-08-12T22:54:01;11.03;;;0.80;;